Terminal Aerodrome Forecast
Issued by NWS Sterling, VA

Current Version | Previous Version | Text Only | Print | Product List | Glossary Off
Versions: 1 2 3 4 5 6 7 8 9 10 11 12 13 14 15 16 17 18

000
FTUS41 KLWX 271127
TAFMRB
TAF
KMRB 271127Z 2712/2812 00000KT 5SM BR SCT020
     FM271300 23007KT P6SM BKN040 OVC070
     FM271600 22008KT 6SM -SHRA VCTS BKN050CB
     FM272000 VRB05KT P6SM SCT050 BKN200=

USA.gov is the U.S. government's official web portal to all federal, state and local government web resources and services.